createdAt,value
2018-03-08T00:02:14.496Z,99548.75
2018-03-08T00:04:40.465Z,99555.59
2018-03-08T00:07:06.443Z,99553.05
2018-03-08T00:09:32.408Z,99555.69
2018-03-08T00:11:58.570Z,99566.22
2018-03-08T00:14:24.586Z,99567.19
2018-03-08T00:16:50.556Z,99574.27
2018-03-08T00:19:16.528Z,99579.64
2018-03-08T00:21:42.491Z,99575.84
2018-03-08T00:24:08.443Z,99588.42
2018-03-08T00:26:34.405Z,99588.85
2018-03-08T00:29:00.432Z,99586.38
2018-03-08T00:31:26.421Z,99592.66
2018-03-08T00:33:52.364Z,99594.69
2018-03-08T00:36:18.334Z,99591.08
2018-03-08T00:38:44.294Z,99601.36
2018-03-08T00:41:10.255Z,99604.66
2018-03-08T00:43:36.347Z,99606.13
2018-03-08T00:46:02.532Z,99607.85
2018-03-08T00:48:28.505Z,99608.92
2018-03-08T00:50:54.470Z,99614.38
2018-03-08T00:53:20.431Z,99615.70
2018-03-08T00:55:46.387Z,99613.66
2018-03-08T00:58:12.347Z,99617.66
2018-03-08T01:00:38.380Z,99621.45
2018-03-08T01:03:04.336Z,99624.00
2018-03-08T01:05:30.293Z,99626.31
2018-03-08T01:07:56.274Z,99619.33
2018-03-08T01:10:22.243Z,99625.22
2018-03-08T01:12:48.197Z,99629.92
2018-03-08T01:15:14.210Z,99635.59
2018-03-08T01:17:40.186Z,99636.36
2018-03-08T01:20:06.143Z,99635.13
2018-03-08T01:22:32.105Z,99636.28
2018-03-08T01:24:58.050Z,99636.59
2018-03-08T01:27:24.038Z,99633.39
2018-03-08T01:29:50.118Z,99638.98
2018-03-08T01:32:16.089Z,99630.51
2018-03-08T01:34:42.035Z,99636.75
2018-03-08T01:37:08.013Z,99637.59
2018-03-08T01:39:33.970Z,99639.06
2018-03-08T01:41:59.919Z,99640.89
2018-03-08T01:44:25.886Z,99636.12
2018-03-08T01:46:51.842Z,99633.39
2018-03-08T01:49:17.821Z,99639.88
2018-03-08T01:51:43.823Z,99639.47
2018-03-08T01:54:09.813Z,99636.02
2018-03-08T01:56:35.761Z,99635.68
2018-03-08T01:59:01.763Z,99637.17
2018-03-08T02:01:27.747Z,99633.98
2018-03-08T02:03:53.686Z,99633.23
2018-03-08T02:06:19.783Z,99634.89
2018-03-08T02:08:45.741Z,99635.55
2018-03-08T02:11:11.701Z,99626.89
2018-03-08T02:13:37.662Z,99631.75
2018-03-08T02:16:03.610Z,99635.20
2018-03-08T02:18:29.560Z,99635.05
2018-03-08T02:20:55.529Z,99637.77
2018-03-08T02:23:21.484Z,99644.81
2018-03-08T02:25:47.429Z,99641.94
2018-03-08T02:28:13.396Z,99641.45
2018-03-08T02:30:39.344Z,99645.33
2018-03-08T02:33:05.303Z,99638.84
2018-03-08T02:35:31.282Z,99645.31
2018-03-08T02:37:57.235Z,99647.22
2018-03-08T02:40:23.205Z,99646.47
2018-03-08T02:42:49.170Z,99652.82
2018-03-08T02:45:15.120Z,99657.27
2018-03-08T02:47:41.071Z,99653.88
2018-03-08T02:50:07.076Z,99655.12
2018-03-08T02:52:33.023Z,99655.59
2018-03-08T02:54:59.007Z,99659.22
2018-03-08T02:57:24.954Z,99654.22
2018-03-08T02:59:50.904Z,99656.19
2018-03-08T03:02:16.876Z,99660.70
2018-03-08T03:04:42.826Z,99657.34
2018-03-08T03:07:08.773Z,99661.85
2018-03-08T03:09:34.756Z,99661.61
2018-03-08T03:12:00.735Z,99662.45
2018-03-08T03:14:26.684Z,99662.62
2018-03-08T03:16:52.649Z,99661.38
2018-03-08T03:19:18.603Z,99666.05
2018-03-08T03:21:44.562Z,99671.91
2018-03-08T03:24:10.552Z,99668.28
2018-03-08T03:26:36.509Z,99663.58
2018-03-08T03:29:02.479Z,99664.89
2018-03-08T03:31:28.465Z,99662.92
2018-03-08T03:33:54.726Z,99660.79
2018-03-08T03:36:20.695Z,99666.06
2018-03-08T03:38:46.655Z,99664.50
2018-03-08T03:41:12.713Z,99670.67
2018-03-08T03:43:38.682Z,99661.37
2018-03-08T03:46:04.632Z,99666.61
2018-03-08T03:48:30.639Z,99664.89
2018-03-08T03:50:56.588Z,99663.98
2018-03-08T03:53:22.557Z,99658.70
2018-03-08T03:55:48.514Z,99657.36
2018-03-08T03:58:14.491Z,99661.07
2018-03-08T04:00:40.439Z,99659.09
2018-03-08T04:03:06.398Z,99662.64
2018-03-08T04:05:32.378Z,99663.67
2018-03-08T04:07:58.321Z,99661.92
2018-03-08T04:10:24.303Z,99665.75
2018-03-08T04:12:50.252Z,99661.48
2018-03-08T04:15:16.278Z,99659.75
2018-03-08T04:17:42.238Z,99660.00
2018-03-08T04:20:08.210Z,99659.69
2018-03-08T04:22:34.164Z,99670.92
2018-03-08T04:25:00.112Z,99666.72
2018-03-08T04:27:26.067Z,99671.14
2018-03-08T04:29:52.020Z,99678.20
2018-03-08T04:32:17.970Z,99669.70
2018-03-08T04:34:43.938Z,99669.73
2018-03-08T04:37:09.929Z,99666.28
2018-03-08T04:39:35.878Z,99665.37
2018-03-08T04:42:01.842Z,99663.11
2018-03-08T04:44:27.788Z,99665.62
2018-03-08T04:46:53.784Z,99669.47
2018-03-08T04:49:19.749Z,99672.61
2018-03-08T04:51:45.708Z,99677.12
2018-03-08T04:54:11.657Z,99675.06
2018-03-08T04:56:37.636Z,99683.88
2018-03-08T04:59:03.575Z,99691.88
2018-03-08T05:01:29.539Z,99687.51
2018-03-08T05:03:55.490Z,99690.65
2018-03-08T05:06:21.450Z,99686.70
2018-03-08T05:08:47.398Z,99682.33
2018-03-08T05:11:13.390Z,99680.60
2018-03-08T05:13:39.360Z,99681.59
2018-03-08T05:16:05.319Z,99675.88
2018-03-08T05:18:31.293Z,99681.63
2018-03-08T05:20:57.242Z,99682.22
2018-03-08T05:23:23.197Z,99679.52
2018-03-08T05:25:49.150Z,99682.72
2018-03-08T05:28:15.136Z,99682.16
2018-03-08T05:30:41.104Z,99686.36
2018-03-08T05:33:07.047Z,99683.72
2018-03-08T05:35:32.999Z,99683.13
2018-03-08T05:37:58.958Z,99691.94
2018-03-08T05:40:24.910Z,99690.69
2018-03-08T05:42:50.881Z,99692.03
2018-03-08T05:45:16.852Z,99692.19
2018-03-08T05:47:42.817Z,99693.92
2018-03-08T05:50:08.867Z,99698.94
2018-03-08T05:52:34.820Z,99698.63
2018-03-08T05:55:00.806Z,99716.57
2018-03-08T05:57:26.803Z,99716.31
2018-03-08T05:59:52.754Z,99722.18
2018-03-08T06:02:18.745Z,99720.94
2018-03-08T06:04:44.683Z,99715.91
2018-03-08T06:07:10.636Z,99724.73
2018-03-08T06:09:36.611Z,99734.45
2018-03-08T06:12:02.581Z,99737.31
2018-03-08T06:14:28.541Z,99746.62
2018-03-08T06:16:54.504Z,99741.11
2018-03-08T06:19:20.509Z,99735.85
2018-03-08T06:21:46.483Z,99739.12
2018-03-08T06:24:12.456Z,99741.52
2018-03-08T06:26:38.416Z,99740.28
2018-03-08T06:29:04.439Z,99740.30
2018-03-08T06:31:30.389Z,99732.45
2018-03-08T06:33:56.347Z,99733.94
2018-03-08T06:36:22.521Z,99735.73
2018-03-08T06:38:48.469Z,99735.73
2018-03-08T06:41:14.420Z,99734.91
2018-03-08T06:43:40.664Z,99728.73
2018-03-08T06:46:06.588Z,99725.94
2018-03-08T06:48:32.551Z,99728.16
2018-03-08T06:50:58.518Z,99728.75
2018-03-08T06:53:24.472Z,99722.08
2018-03-08T06:55:50.417Z,99723.61
2018-03-08T06:58:16.370Z,99728.50
2018-03-08T07:00:42.391Z,99720.09
2018-03-08T07:03:08.377Z,99722.25
2018-03-08T07:05:34.327Z,99720.84
2018-03-08T07:08:00.387Z,99718.80
2018-03-08T07:10:26.411Z,99718.86
2018-03-08T07:12:52.371Z,99723.05
2018-03-08T07:15:18.314Z,99720.03
2018-03-08T07:17:44.275Z,99715.58
2018-03-08T07:20:10.253Z,99719.77
2018-03-08T07:22:36.191Z,99721.75
2018-03-08T07:25:02.154Z,99725.20
2018-03-08T07:27:28.119Z,99729.72
2018-03-08T07:29:54.072Z,99733.59
2018-03-08T07:32:20.030Z,99732.36
2018-03-08T07:34:45.995Z,99737.81
2018-03-08T07:37:11.958Z,99741.84
2018-03-08T07:39:37.897Z,99752.38
2018-03-08T07:42:03.867Z,99743.73
2018-03-08T07:44:29.879Z,99741.94
2018-03-08T07:46:55.839Z,99735.66
2018-03-08T07:49:21.801Z,99739.27
2018-03-08T07:51:47.792Z,99732.61
2018-03-08T07:54:13.720Z,99728.75
2018-03-08T07:56:39.657Z,99723.14
2018-03-08T07:59:05.630Z,99718.14
2018-03-08T08:01:31.579Z,99723.58
2018-03-08T08:03:57.526Z,99720.02
2018-03-08T08:06:23.499Z,99714.67
2018-03-08T08:08:49.454Z,99707.89
2018-03-08T08:11:15.420Z,99710.63
2018-03-08T08:13:41.366Z,99705.94
2018-03-08T08:16:07.356Z,99704.28
2018-03-08T08:18:33.310Z,99707.64
2018-03-08T08:20:59.289Z,99701.08
2018-03-08T08:23:25.243Z,99695.53
2018-03-08T08:25:51.203Z,99689.37
2018-03-08T08:28:17.147Z,99689.03
2018-03-08T08:30:43.114Z,99694.23
2018-03-08T08:33:09.162Z,99688.56
2018-03-08T08:35:35.119Z,99697.53
2018-03-08T08:38:01.102Z,99701.14
2018-03-08T08:40:27.093Z,99691.85
2018-03-08T08:42:53.059Z,99693.08
2018-03-08T08:45:19.017Z,99684.52
2018-03-08T08:47:45.001Z,99686.73
2018-03-08T08:50:10.995Z,99689.97
2018-03-08T08:52:36.964Z,99686.08
2018-03-08T08:55:02.929Z,99687.80
2018-03-08T08:57:28.894Z,99679.80
2018-03-08T08:59:54.855Z,99685.39
2018-03-08T09:02:20.874Z,99687.63
2018-03-08T09:04:46.891Z,99681.53
2018-03-08T09:07:12.849Z,99681.78
2018-03-08T09:09:38.820Z,99679.39
2018-03-08T09:12:04.776Z,99677.58
2018-03-08T09:14:30.752Z,99679.14
2018-03-08T09:16:56.700Z,99681.03
2018-03-08T09:19:22.658Z,99673.69
2018-03-08T09:21:48.622Z,99676.92
2018-03-08T09:24:14.571Z,99667.03
2018-03-08T09:26:40.547Z,99659.22
2018-03-08T09:29:06.506Z,99653.29
2018-03-08T09:31:32.488Z,99652.13
2018-03-08T09:33:58.446Z,99647.27
2018-03-08T09:36:24.405Z,99654.45
2018-03-08T09:38:50.340Z,99645.38
2018-03-08T09:41:16.303Z,99649.08
2018-03-08T09:43:42.289Z,99647.11
2018-03-08T09:46:08.260Z,99643.81
2018-03-08T09:48:34.360Z,99637.15
2018-03-08T09:51:00.329Z,99630.69
2018-03-08T09:53:26.280Z,99628.25
2018-03-08T09:55:52.300Z,99632.69
2018-03-08T09:58:18.248Z,99627.73
2018-03-08T10:00:44.199Z,99626.83
2018-03-08T10:03:10.222Z,99630.54
2018-03-08T10:05:36.179Z,99630.88
2018-03-08T10:08:02.151Z,99628.25
2018-03-08T10:10:28.122Z,99627.24
2018-03-08T10:12:54.149Z,99622.73
2018-03-08T10:15:20.081Z,99624.29
2018-03-08T10:17:46.062Z,99623.29
2018-03-08T10:20:12.021Z,99619.87
2018-03-08T10:22:37.990Z,99618.56
2018-03-08T10:25:03.974Z,99611.43
2018-03-08T10:27:29.934Z,99607.88
2018-03-08T10:29:55.893Z,99612.12
2018-03-08T10:32:22.938Z,99596.78
2018-03-08T10:34:48.913Z,99598.75
2018-03-08T10:37:14.859Z,99590.64
2018-03-08T10:39:40.901Z,99594.30
2018-03-08T10:42:06.860Z,99601.19
2018-03-08T10:44:32.815Z,99599.16
2018-03-08T10:46:58.776Z,99599.41
2018-03-08T10:49:24.782Z,99602.19
2018-03-08T10:51:50.733Z,99590.69
2018-03-08T10:54:16.807Z,99600.48
2018-03-08T10:56:42.738Z,99600.58
2018-03-08T10:59:08.702Z,99591.09
2018-03-08T11:01:34.658Z,99588.20
2018-03-08T11:04:00.616Z,99587.45
2018-03-08T11:06:26.637Z,99578.73
2018-03-08T11:08:52.578Z,99573.75
2018-03-08T11:11:18.532Z,99574.77
2018-03-08T11:13:44.482Z,99569.91
2018-03-08T11:16:10.430Z,99567.02
2018-03-08T11:18:36.486Z,99568.78
2018-03-08T11:21:02.449Z,99564.17
2018-03-08T11:23:28.405Z,99564.39
2018-03-08T11:25:54.382Z,99564.23
2018-03-08T11:28:20.345Z,99564.14
2018-03-08T11:30:46.320Z,99558.09
2018-03-08T11:33:12.295Z,99559.61
2018-03-08T11:35:38.238Z,99554.19
2018-03-08T11:38:04.222Z,99547.19
2018-03-08T11:40:30.203Z,99554.09
2018-03-08T11:42:56.142Z,99545.94
2018-03-08T11:45:22.087Z,99552.93
2018-03-08T11:47:48.246Z,99547.35
2018-03-08T11:50:14.188Z,99533.86
2018-03-08T11:52:40.133Z,99537.63
2018-03-08T11:55:06.166Z,99528.80
2018-03-08T11:57:32.119Z,99529.70
2018-03-08T11:59:58.176Z,99530.97
2018-03-08T12:02:24.161Z,99529.05
2018-03-08T12:04:50.137Z,99517.79
2018-03-08T12:07:16.122Z,99513.33
2018-03-08T12:09:42.107Z,99512.47
2018-03-08T12:12:08.228Z,99508.16
2018-03-08T12:14:34.181Z,99511.05
2018-03-08T12:17:00.140Z,99505.16
2018-03-08T12:19:26.169Z,99505.33
2018-03-08T12:21:52.145Z,99490.13
2018-03-08T12:24:18.094Z,99488.80
2018-03-08T12:26:44.052Z,99483.28
2018-03-08T12:29:10.046Z,99482.16
2018-03-08T12:31:36.021Z,99475.28
2018-03-08T12:34:02.088Z,99481.04
2018-03-08T12:36:28.026Z,99472.89
2018-03-08T12:38:53.995Z,99474.50
2018-03-08T12:41:19.940Z,99464.78
2018-03-08T12:43:45.901Z,99467.71
2018-03-08T12:46:11.884Z,99462.80
2018-03-08T12:48:37.865Z,99460.00
2018-03-08T12:51:03.851Z,99474.04
2018-03-08T12:53:29.799Z,99458.95
2018-03-08T12:55:55.758Z,99460.33
2018-03-08T12:58:21.702Z,99457.47
2018-03-08T13:00:47.663Z,99450.98
2018-03-08T13:03:13.630Z,99448.75
2018-03-08T13:05:39.628Z,99454.42
2018-03-08T13:08:05.593Z,99450.22
2018-03-08T13:10:31.572Z,99444.77
2018-03-08T13:12:57.532Z,99437.41
2018-03-08T13:15:23.503Z,99449.98
2018-03-08T13:17:49.500Z,99437.01
2018-03-08T13:20:15.450Z,99432.48
2018-03-08T13:22:41.398Z,99433.59
2018-03-08T13:25:07.357Z,99431.28
2018-03-08T13:27:33.326Z,99437.20
2018-03-08T13:29:59.280Z,99431.00
2018-03-08T13:32:25.235Z,99427.66
2018-03-08T13:34:51.198Z,99423.06
2018-03-08T13:37:17.155Z,99416.22
2018-03-08T13:39:43.110Z,99410.52
2018-03-08T13:42:09.067Z,99408.83
2018-03-08T13:44:35.043Z,99396.47
2018-03-08T13:47:01.005Z,99401.17
2018-03-08T13:49:26.974Z,99397.63
2018-03-08T13:51:52.929Z,99396.61
2018-03-08T13:54:18.887Z,99408.52
2018-03-08T13:56:44.831Z,99415.44
2018-03-08T13:59:10.830Z,99420.41
2018-03-08T14:01:36.787Z,99420.63
2018-03-08T14:04:02.733Z,99421.78
2018-03-08T14:06:28.757Z,99424.09
2018-03-08T14:08:54.702Z,99430.72
2018-03-08T14:11:20.774Z,99432.34
2018-03-08T14:13:47.598Z,99406.18
2018-03-08T14:16:13.557Z,99399.05
2018-03-08T14:18:39.570Z,99402.50
2018-03-08T14:21:05.530Z,99391.55
2018-03-08T14:23:31.489Z,99395.75
2018-03-08T14:25:57.436Z,99395.10
2018-03-08T14:28:23.410Z,99392.22
2018-03-08T14:30:49.387Z,99401.04
2018-03-08T14:33:15.355Z,99399.00
2018-03-08T14:35:41.327Z,99392.41
2018-03-08T14:38:07.308Z,99384.87
2018-03-08T14:40:33.269Z,99397.06
2018-03-08T14:42:59.230Z,99395.12
2018-03-08T14:45:25.214Z,99394.55
2018-03-08T14:47:51.210Z,99391.65
2018-03-08T14:50:17.179Z,99381.42
2018-03-08T14:52:43.118Z,99389.66
2018-03-08T14:55:09.094Z,99384.80
2018-03-08T14:57:35.115Z,99377.47
2018-03-08T15:00:01.079Z,99378.86
2018-03-08T15:02:27.030Z,99362.55
2018-03-08T15:04:53.014Z,99380.25
2018-03-08T15:07:18.961Z,99369.56
2018-03-08T15:09:44.901Z,99360.33
2018-03-08T15:12:10.851Z,99351.25
2018-03-08T15:14:36.874Z,99359.36
2018-03-08T15:17:02.806Z,99364.50
2018-03-08T15:19:28.754Z,99356.98
2018-03-08T15:21:54.830Z,99363.36
2018-03-08T15:24:20.778Z,99368.32
2018-03-08T15:26:46.776Z,99382.21
2018-03-08T15:29:12.702Z,99383.13
2018-03-08T15:31:38.655Z,99387.80
2018-03-08T15:34:04.597Z,99397.20
2018-03-08T15:36:30.573Z,99407.85
2018-03-08T15:38:56.535Z,99407.75
2018-03-08T15:41:22.494Z,99425.81
2018-03-08T15:43:48.455Z,99425.20
2018-03-08T15:46:14.402Z,99432.55
2018-03-08T15:48:40.360Z,99444.93
2018-03-08T15:51:06.307Z,99446.53
2018-03-08T15:53:32.338Z,99454.95
2018-03-08T15:55:58.308Z,99462.45
2018-03-08T15:58:24.242Z,99465.34
2018-03-08T16:00:50.226Z,99470.20
2018-03-08T16:03:16.194Z,99478.62
2018-03-08T16:05:42.160Z,99486.42
2018-03-08T16:08:08.107Z,99495.86
2018-03-08T16:10:34.102Z,99506.69
2018-03-08T16:13:00.061Z,99499.66
2018-03-08T16:15:26.003Z,99479.62
2018-03-08T16:17:51.962Z,99460.28
2018-03-08T16:20:17.939Z,99439.53
2018-03-08T16:22:43.874Z,99437.25
2018-03-08T16:25:09.846Z,99442.16
2018-03-08T16:27:35.781Z,99441.16
2018-03-08T16:30:01.745Z,99427.41
2018-03-08T16:32:27.701Z,99433.08
2018-03-08T16:34:53.679Z,99437.79
2018-03-08T16:37:19.651Z,99448.43
2018-03-08T16:39:45.604Z,99459.33
2018-03-08T16:42:11.543Z,99447.11
2018-03-08T16:44:37.529Z,99436.48
2018-03-08T16:47:03.492Z,99455.49
2018-03-08T16:49:29.430Z,99455.49
2018-03-08T16:51:55.391Z,99466.30
2018-03-08T16:54:21.345Z,99479.47
2018-03-08T16:56:47.314Z,99465.53
2018-03-08T16:59:13.331Z,99464.47
2018-03-08T17:01:39.231Z,99468.17
2018-03-08T17:04:05.166Z,99467.78
2018-03-08T17:06:31.178Z,99463.91
2018-03-08T17:08:57.139Z,99466.39
2018-03-08T17:11:23.105Z,99468.63
2018-03-08T17:13:49.214Z,99485.97
2018-03-08T17:16:15.166Z,99481.52
2018-03-08T17:18:41.127Z,99479.52
2018-03-08T17:21:07.087Z,99480.13
2018-03-08T17:23:33.034Z,99487.29
2018-03-08T17:25:59.002Z,99487.94
2018-03-08T17:28:25.049Z,99489.00
2018-03-08T17:30:50.914Z,99486.45
2018-03-08T17:33:16.852Z,99485.67
2018-03-08T17:35:42.877Z,99491.19
2018-03-08T17:38:08.833Z,99493.98
2018-03-08T17:40:34.786Z,99504.77
2018-03-08T17:43:00.727Z,99502.38
2018-03-08T17:45:26.698Z,99512.55
2018-03-08T17:47:52.630Z,99521.55
2018-03-08T17:50:18.598Z,99527.74
2018-03-08T17:52:44.573Z,99534.06
2018-03-08T17:55:10.523Z,99541.16
2018-03-08T17:57:36.491Z,99546.01
2018-03-08T18:00:02.463Z,99554.23
2018-03-08T18:02:28.419Z,99559.17
2018-03-08T18:04:54.373Z,99561.05
2018-03-08T18:07:25.463Z,99568.55
2018-03-08T18:09:51.443Z,99564.51
2018-03-08T18:12:17.414Z,99567.03
2018-03-08T18:14:43.418Z,99570.73
2018-03-08T18:17:09.414Z,99568.86
2018-03-08T18:19:35.381Z,99575.20
2018-03-08T18:22:01.378Z,99575.97
2018-03-08T18:24:27.366Z,99582.45
2018-03-08T18:26:53.334Z,99576.10
2018-03-08T18:29:19.424Z,99587.06
2018-03-08T18:31:45.388Z,99585.89
2018-03-08T18:34:11.358Z,99585.49
2018-03-08T18:36:37.342Z,99591.67
2018-03-08T18:39:03.305Z,99589.65
2018-03-08T18:41:29.266Z,99593.34
2018-03-08T18:43:55.243Z,99596.94
2018-03-08T18:46:21.223Z,99598.47
2018-03-08T18:48:47.202Z,99600.70
2018-03-08T18:51:13.196Z,99603.18
2018-03-08T18:53:39.157Z,99610.30
2018-03-08T18:56:05.146Z,99613.88
2018-03-08T18:58:31.150Z,99612.85
2018-03-08T19:00:57.114Z,99619.12
2018-03-08T19:03:23.076Z,99614.80
2018-03-08T19:05:49.028Z,99620.95
2018-03-08T19:08:14.990Z,99620.47
2018-03-08T19:10:40.985Z,99621.64
2018-03-08T19:13:06.992Z,99626.41
2018-03-08T19:15:32.914Z,99635.30
2018-03-08T19:17:58.888Z,99636.64
2018-03-08T19:20:24.888Z,99648.58
2018-03-08T19:22:50.878Z,99652.47
2018-03-08T19:25:16.839Z,99654.82
2018-03-08T19:27:42.806Z,99670.98
2018-03-08T19:30:08.785Z,99668.34
2018-03-08T19:32:34.754Z,99673.46
2018-03-08T19:35:00.748Z,99685.17
2018-03-08T19:37:26.731Z,99683.82
2018-03-08T19:39:52.755Z,99678.08
2018-03-08T19:42:18.696Z,99692.73
2018-03-08T19:44:44.710Z,99688.53
2018-03-08T19:47:11.629Z,99700.08
2018-03-08T19:49:37.590Z,99700.70
2018-03-08T19:52:03.635Z,99706.77
2018-03-08T19:54:30.625Z,99702.47
2018-03-08T19:56:56.594Z,99707.05
2018-03-08T19:59:22.555Z,99707.95
2018-03-08T20:01:48.554Z,99715.05
2018-03-08T20:04:14.557Z,99718.59
2018-03-08T20:06:40.518Z,99726.34
2018-03-08T20:09:06.559Z,99727.82
2018-03-08T20:11:32.526Z,99736.89
2018-03-08T20:13:58.496Z,99740.69
2018-03-08T20:16:24.458Z,99748.51
2018-03-08T20:18:50.446Z,99749.61
2018-03-08T20:21:16.424Z,99752.15
2018-03-08T20:23:42.391Z,99749.06
2018-03-08T20:26:08.368Z,99758.14
2018-03-08T20:28:34.365Z,99758.74
2018-03-08T20:31:00.326Z,99771.23
2018-03-08T20:33:26.320Z,99769.78
2018-03-08T20:35:52.296Z,99777.20
2018-03-08T20:38:18.252Z,99780.55
2018-03-08T20:40:44.214Z,99783.09
2018-03-08T20:43:10.185Z,99787.30
2018-03-08T20:45:36.192Z,99793.63
2018-03-08T20:48:02.175Z,99791.68
2018-03-08T20:50:28.174Z,99795.13
2018-03-08T20:52:54.130Z,99795.36
2018-03-08T20:55:20.146Z,99797.27
2018-03-08T20:57:46.078Z,99803.53
2018-03-08T21:00:12.069Z,99801.16
2018-03-08T21:02:38.072Z,99802.13
2018-03-08T21:05:04.355Z,99810.77
2018-03-08T21:07:30.323Z,99808.81
2018-03-08T21:09:56.298Z,99807.91
2018-03-08T21:12:22.278Z,99817.45
2018-03-08T21:14:48.257Z,99819.52
2018-03-08T21:17:14.219Z,99819.84
2018-03-08T21:19:40.181Z,99820.49
2018-03-08T21:22:07.159Z,99821.01
2018-03-08T21:24:33.123Z,99831.06
2018-03-08T21:26:59.195Z,99834.43
2018-03-08T21:29:25.129Z,99843.98
2018-03-08T21:31:51.127Z,99839.13
2018-03-08T21:34:17.088Z,99841.59
2018-03-08T21:36:43.065Z,99848.03
2018-03-08T21:39:09.064Z,99845.39
2018-03-08T21:41:35.050Z,99845.14
2018-03-08T21:44:01.027Z,99854.70
2018-03-08T21:46:26.990Z,99860.46
2018-03-08T21:48:52.999Z,99859.70
2018-03-08T21:51:18.980Z,99868.18
2018-03-08T21:53:44.949Z,99867.37
2018-03-08T21:56:10.952Z,99877.08
2018-03-08T21:58:36.915Z,99879.65
2018-03-08T22:01:02.875Z,99883.41
2018-03-08T22:03:29.008Z,99889.77
2018-03-08T22:05:54.978Z,99891.33
2018-03-08T22:08:20.956Z,99897.34
2018-03-08T22:10:46.959Z,99896.94
2018-03-08T22:13:12.929Z,99901.22
2018-03-08T22:15:38.882Z,99896.50
2018-03-08T22:18:04.830Z,99904.41
2018-03-08T22:20:30.804Z,99907.70
2018-03-08T22:22:56.770Z,99908.95
2018-03-08T22:25:22.741Z,99912.15
2018-03-08T22:27:48.702Z,99916.02
2018-03-08T22:30:14.675Z,99918.01
2018-03-08T22:32:40.641Z,99916.34
2018-03-08T22:35:06.593Z,99921.12
2018-03-08T22:37:32.557Z,99918.35
2018-03-08T22:39:58.517Z,99915.71
2018-03-08T22:42:24.480Z,99917.09
2018-03-08T22:44:50.445Z,99917.41
2018-03-08T22:47:16.426Z,99920.77
2018-03-08T22:49:42.420Z,99925.47
2018-03-08T22:52:08.379Z,99926.13
2018-03-08T22:54:34.362Z,99927.04
2018-03-08T22:57:00.327Z,99927.26
2018-03-08T22:59:26.269Z,99932.24
2018-03-08T23:01:52.242Z,99931.64
2018-03-08T23:04:18.215Z,99936.00
2018-03-08T23:06:44.186Z,99934.34
2018-03-08T23:09:10.139Z,99932.77
2018-03-08T23:11:36.113Z,99938.88
2018-03-08T23:14:02.095Z,99944.79
2018-03-08T23:16:28.086Z,99943.30
2018-03-08T23:18:54.111Z,99942.50
2018-03-08T23:21:20.089Z,99945.45
2018-03-08T23:23:46.098Z,99953.67
2018-03-08T23:26:12.073Z,99953.41
2018-03-08T23:28:38.047Z,99953.82
2018-03-08T23:31:04.036Z,99955.14
2018-03-08T23:33:30.135Z,99959.88
2018-03-08T23:40:58.741Z,99960.48
2018-03-08T23:43:24.734Z,99967.98
2018-03-08T23:45:50.705Z,99969.30
2018-03-08T23:48:16.665Z,99972.34
2018-03-08T23:50:42.630Z,99970.03
2018-03-08T23:53:08.578Z,99975.80
2018-03-08T23:55:34.571Z,99977.00
2018-03-08T23:58:00.556Z,99979.25
